createdAt,value
2023-01-06T00:01:12.084Z,100886.81
2023-01-06T00:03:41.188Z,100893.03
2023-01-06T00:06:10.780Z,100886.84
2023-01-06T00:08:37.564Z,100878.00
2023-01-06T00:11:12.912Z,100875.38
2023-01-06T00:13:40.175Z,100874.56
2023-01-06T00:16:12.921Z,100876.38
2023-01-06T00:18:40.141Z,100873.72
2023-01-06T00:21:07.667Z,100878.13
2023-01-06T00:23:35.598Z,100872.84
2023-01-06T00:26:02.683Z,100865.84
2023-01-06T00:28:29.784Z,100861.41
2023-01-06T00:30:56.435Z,100852.63
2023-01-06T00:33:23.720Z,100859.66
2023-01-06T00:35:51.045Z,100855.28
2023-01-06T00:38:17.938Z,100861.47
2023-01-06T00:40:46.547Z,100844.72
2023-01-06T00:43:13.184Z,100832.41
2023-01-06T00:45:39.887Z,100837.72
2023-01-06T00:48:06.364Z,100838.63
2023-01-06T00:50:32.897Z,100836.84
2023-01-06T00:52:59.605Z,100831.56
2023-01-06T00:55:26.412Z,100832.47
2023-01-06T00:57:53.256Z,100821.91
2023-01-06T01:00:20.290Z,100828.91
2023-01-06T01:02:46.775Z,100830.72
2023-01-06T01:05:14.019Z,100830.72
2023-01-06T01:07:42.187Z,100823.63
2023-01-06T01:10:09.498Z,100826.25
2023-01-06T01:12:36.374Z,100820.06
2023-01-06T01:15:03.543Z,100827.13
2023-01-06T01:17:31.815Z,100824.50
2023-01-06T01:20:01.001Z,100823.59
2023-01-06T01:22:30.558Z,100825.34
2023-01-06T01:24:57.424Z,100827.16
2023-01-06T01:27:24.461Z,100822.69
2023-01-06T01:29:52.391Z,100819.13
2023-01-06T01:32:19.208Z,100822.69
2023-01-06T01:34:45.734Z,100818.31
2023-01-06T01:37:12.229Z,100818.28
2023-01-06T01:39:38.910Z,100820.03
2023-01-06T01:42:13.039Z,100806.78
2023-01-06T01:44:48.852Z,100819.09
2023-01-06T01:47:21.301Z,100817.38
2023-01-06T01:49:54.016Z,100817.38
2023-01-06T01:52:22.528Z,100820.00
2023-01-06T01:54:52.054Z,100821.78
2023-01-06T01:57:53.598Z,100812.97
2023-01-06T02:00:20.607Z,100811.19
2023-01-06T02:02:47.343Z,100804.19
2023-01-06T02:05:18.252Z,100814.78
2023-01-06T02:07:46.029Z,100806.88
2023-01-06T02:10:21.729Z,100813.94
2023-01-06T02:12:54.337Z,100813.94
2023-01-06T02:15:34.347Z,100807.72
2023-01-06T02:18:14.502Z,100802.44
2023-01-06T02:20:46.288Z,100802.47
2023-01-06T02:23:36.994Z,100789.22
2023-01-06T02:26:33.814Z,100787.44
2023-01-06T02:29:38.250Z,100788.31
2023-01-06T02:32:26.381Z,100784.75
2023-01-06T02:35:19.628Z,100780.34
2023-01-06T02:38:01.995Z,100779.47
2023-01-06T02:40:36.641Z,100773.31
2023-01-06T02:43:14.005Z,100767.13
2023-01-06T02:46:19.395Z,100758.28
2023-01-06T02:49:11.146Z,100754.72
2023-01-06T02:52:11.267Z,100752.97
2023-01-06T02:55:04.756Z,100741.50
2023-01-06T02:57:45.445Z,100729.09
2023-01-06T03:00:34.405Z,100731.69
2023-01-06T03:03:06.010Z,100724.59
2023-01-06T03:05:35.858Z,100726.28
2023-01-06T03:08:08.145Z,100724.50
2023-01-06T03:10:35.619Z,100734.06
2023-01-06T03:13:09.071Z,100739.25
2023-01-06T03:15:36.411Z,100734.91
2023-01-06T03:18:03.512Z,100729.66
2023-01-06T03:20:30.410Z,100726.16
2023-01-06T03:22:57.599Z,100717.38
2023-01-06T03:25:25.901Z,100720.03
2023-01-06T03:27:53.317Z,100711.28
2023-01-06T03:30:26.233Z,100707.75
2023-01-06T03:33:19.731Z,100711.31
2023-01-06T03:36:07.983Z,100711.31
2023-01-06T03:38:52.376Z,100711.34
2023-01-06T03:41:52.021Z,100708.75
2023-01-06T03:44:35.221Z,100704.38
2023-01-06T03:47:12.802Z,100704.41
2023-01-06T03:49:52.104Z,100698.31
2023-01-06T03:52:34.911Z,100691.28
2023-01-06T03:55:15.091Z,100686.84
2023-01-06T03:57:46.417Z,100694.78
2023-01-06T04:00:19.101Z,100689.50
2023-01-06T04:02:54.332Z,100686.00
2023-01-06T04:05:26.026Z,100679.84
2023-01-06T04:07:53.328Z,100678.09
2023-01-06T04:10:22.641Z,100669.25
2023-01-06T04:12:52.466Z,100673.69
2023-01-06T04:15:26.190Z,100671.06
2023-01-06T04:17:55.704Z,100679.00
2023-01-06T04:20:25.874Z,100665.78
2023-01-06T04:22:58.301Z,100673.72
2023-01-06T04:25:26.571Z,100670.19
2023-01-06T04:27:53.216Z,100661.44
2023-01-06T04:30:20.560Z,100666.75
2023-01-06T04:32:47.553Z,100655.28
2023-01-06T04:35:15.714Z,100658.84
2023-01-06T04:37:43.157Z,100659.75
2023-01-06T04:40:10.711Z,100644.78
2023-01-06T04:42:56.136Z,100637.72
2023-01-06T04:45:22.951Z,100646.56
2023-01-06T04:47:52.908Z,100635.16
2023-01-06T04:50:19.417Z,100637.81
2023-01-06T04:52:48.484Z,100636.94
2023-01-06T04:55:15.115Z,100630.78
2023-01-06T04:57:42.177Z,100630.75
2023-01-06T05:00:09.557Z,100632.56
2023-01-06T05:02:36.110Z,100626.38
2023-01-06T05:05:02.713Z,100628.19
2023-01-06T05:07:31.868Z,100633.50
2023-01-06T05:09:58.543Z,100616.75
2023-01-06T05:12:25.143Z,100619.47
2023-01-06T05:14:51.834Z,100616.84
2023-01-06T05:17:18.526Z,100610.69
2023-01-06T05:19:45.477Z,100617.75
2023-01-06T05:22:12.311Z,100615.97
2023-01-06T05:24:39.035Z,100611.59
2023-01-06T05:27:05.808Z,100604.56
2023-01-06T05:29:33.195Z,100608.06
2023-01-06T05:32:02.465Z,100611.63
2023-01-06T05:34:29.016Z,100613.34
2023-01-06T05:36:56.449Z,100616.91
2023-01-06T05:39:22.930Z,100612.50
2023-01-06T05:41:49.627Z,100608.97
2023-01-06T05:44:16.280Z,100609.91
2023-01-06T05:46:42.777Z,100609.91
2023-01-06T05:49:09.828Z,100609.91
2023-01-06T05:51:36.611Z,100602.03
2023-01-06T05:54:07.910Z,100603.81
2023-01-06T05:56:34.765Z,100605.63
2023-01-06T05:59:01.908Z,100602.06
2023-01-06T06:01:31.302Z,100601.22
2023-01-06T06:03:58.817Z,100600.34
2023-01-06T06:06:27.367Z,100605.63
2023-01-06T06:08:54.082Z,100608.28
2023-01-06T06:11:20.689Z,100605.63
2023-01-06T06:13:49.096Z,100602.09
2023-01-06T06:16:17.451Z,100595.06
2023-01-06T06:18:44.425Z,100604.75
2023-01-06T06:21:13.808Z,100598.63
2023-01-06T06:23:40.807Z,100592.47
2023-01-06T06:26:08.669Z,100577.50
2023-01-06T06:28:36.622Z,100582.78
2023-01-06T06:31:15.584Z,100595.13
2023-01-06T06:33:42.259Z,100596.03
2023-01-06T06:36:15.994Z,100597.81
2023-01-06T06:38:44.250Z,100596.06
2023-01-06T06:41:11.510Z,100594.31
2023-01-06T06:43:38.345Z,100584.63
2023-01-06T06:46:05.437Z,100580.25
2023-01-06T06:48:31.919Z,100577.63
2023-01-06T06:51:00.233Z,100565.31
2023-01-06T06:53:26.991Z,100561.78
2023-01-06T06:55:53.572Z,100574.16
2023-01-06T06:58:20.109Z,100570.63
2023-01-06T07:00:46.867Z,100561.84
2023-01-06T07:03:13.771Z,100568.91
2023-01-06T07:05:43.065Z,100558.47
2023-01-06T07:08:09.800Z,100563.03
2023-01-06T07:10:36.365Z,100554.41
2023-01-06T07:13:05.066Z,100554.53
2023-01-06T07:15:32.206Z,100554.59
2023-01-06T07:18:02.797Z,100557.31
2023-01-06T07:20:30.127Z,100558.19
2023-01-06T07:22:56.625Z,100548.50
2023-01-06T07:25:23.579Z,100541.44
2023-01-06T07:27:58.002Z,100537.88
2023-01-06T07:30:26.633Z,100549.31
2023-01-06T07:32:53.443Z,100538.69
2023-01-06T07:35:20.219Z,100551.88
2023-01-06T07:37:46.730Z,100547.47
2023-01-06T07:40:14.260Z,100537.72
2023-01-06T07:42:40.760Z,100534.16
2023-01-06T07:45:08.010Z,100525.31
2023-01-06T07:47:34.525Z,100532.34
2023-01-06T07:50:01.376Z,100534.06
2023-01-06T07:52:27.946Z,100527.00
2023-01-06T07:54:56.779Z,100524.38
2023-01-06T07:57:23.272Z,100525.28
2023-01-06T07:59:49.784Z,100522.66
2023-01-06T08:02:16.290Z,100525.31
2023-01-06T08:04:42.756Z,100517.38
2023-01-06T08:07:09.248Z,100514.78
2023-01-06T08:09:35.842Z,100520.09
2023-01-06T08:12:02.512Z,100518.34
2023-01-06T08:14:28.942Z,100518.38
2023-01-06T08:16:55.432Z,100539.53
2023-01-06T08:19:21.933Z,100529.84
2023-01-06T08:21:48.505Z,100523.69
2023-01-06T08:24:15.018Z,100525.47
2023-01-06T08:26:44.576Z,100535.19
2023-01-06T08:29:11.067Z,100536.06
2023-01-06T08:31:37.570Z,100536.97
2023-01-06T08:34:04.064Z,100534.34
2023-01-06T08:36:30.499Z,100540.56
2023-01-06T08:38:57.298Z,100545.00
2023-01-06T08:41:23.766Z,100541.47
2023-01-06T08:43:50.494Z,100544.19
2023-01-06T08:46:19.924Z,100555.63
2023-01-06T08:48:47.937Z,100550.34
2023-01-06T08:51:23.621Z,100554.78
2023-01-06T08:53:51.425Z,100561.84
2023-01-06T08:56:29.488Z,100551.25
2023-01-06T08:59:01.893Z,100558.28
2023-01-06T09:01:34.851Z,100555.63
2023-01-06T09:04:05.800Z,100544.22
2023-01-06T09:06:32.692Z,100546.03
2023-01-06T09:08:59.345Z,100533.69
2023-01-06T09:11:26.757Z,100527.56
2023-01-06T09:13:53.552Z,100524.03
2023-01-06T09:16:20.954Z,100546.13
2023-01-06T09:18:50.027Z,100549.69
2023-01-06T09:21:18.162Z,100540.00
2023-01-06T09:23:44.825Z,100532.19
2023-01-06T09:26:11.936Z,100537.50
2023-01-06T09:28:38.495Z,100545.47
2023-01-06T09:31:05.155Z,100544.59
2023-01-06T09:33:31.765Z,100543.75
2023-01-06T09:35:58.335Z,100542.06
2023-01-06T09:38:26.218Z,100522.69
2023-01-06T09:41:19.355Z,100531.53
2023-01-06T09:44:22.051Z,100534.19
2023-01-06T09:46:51.640Z,100533.34
2023-01-06T09:49:41.573Z,100523.75
2023-01-06T09:52:43.552Z,100530.91
2023-01-06T09:55:20.460Z,100521.25
2023-01-06T09:58:00.803Z,100519.50
2023-01-06T10:00:46.019Z,100522.16
2023-01-06T10:03:19.917Z,100523.06
2023-01-06T10:05:49.163Z,100524.75
2023-01-06T10:08:29.913Z,100513.25
2023-01-06T10:11:11.615Z,100512.31
2023-01-06T10:13:45.165Z,100516.75
2023-01-06T10:16:44.256Z,100512.34
2023-01-06T10:19:51.839Z,100511.44
2023-01-06T10:22:50.423Z,100506.09
2023-01-06T10:25:29.155Z,100506.06
2023-01-06T10:28:14.329Z,100509.53
2023-01-06T10:30:47.735Z,100504.25
2023-01-06T10:33:23.151Z,100513.94
2023-01-06T10:35:50.815Z,100511.31
2023-01-06T10:38:22.830Z,100512.19
2023-01-06T10:40:49.320Z,100510.41
2023-01-06T10:43:17.029Z,100513.91
2023-01-06T10:45:46.092Z,100515.63
2023-01-06T10:48:19.006Z,100512.97
2023-01-06T10:50:45.725Z,100512.06
2023-01-06T10:53:13.350Z,100504.97
2023-01-06T10:55:48.703Z,100512.06
2023-01-06T10:58:31.196Z,100504.13
2023-01-06T11:01:09.192Z,100510.31
2023-01-06T11:03:37.144Z,100509.41
2023-01-06T11:06:08.267Z,100504.13
2023-01-06T11:08:36.709Z,100514.72
2023-01-06T11:11:16.664Z,100509.41
2023-01-06T11:13:57.336Z,100504.13
2023-01-06T11:16:36.758Z,100498.84
2023-01-06T11:19:05.642Z,100498.00
2023-01-06T11:21:44.380Z,100501.53
2023-01-06T11:24:22.952Z,100505.03
2023-01-06T11:27:02.322Z,100505.88
2023-01-06T11:29:35.173Z,100504.97
2023-01-06T11:32:11.036Z,100494.31
2023-01-06T11:34:51.736Z,100493.38
2023-01-06T11:37:31.387Z,100499.50
2023-01-06T11:40:05.208Z,100495.13
2023-01-06T11:42:39.490Z,100498.59
2023-01-06T11:45:36.274Z,100497.75
2023-01-06T11:48:12.342Z,100505.66
2023-01-06T11:50:38.988Z,100484.50
2023-01-06T11:53:16.805Z,100496.00
2023-01-06T11:55:56.389Z,100497.00
2023-01-06T11:58:41.000Z,100493.53
2023-01-06T12:01:30.027Z,100496.28
2023-01-06T12:04:09.068Z,100502.44
2023-01-06T12:06:43.150Z,100498.00
2023-01-06T12:09:19.091Z,100510.41
2023-01-06T12:11:49.005Z,100513.88
2023-01-06T12:14:27.971Z,100515.66
2023-01-06T12:17:36.215Z,100521.84
2023-01-06T12:20:08.848Z,100525.41
2023-01-06T12:22:59.070Z,100507.78
2023-01-06T12:25:33.147Z,100521.06
2023-01-06T12:28:14.232Z,100526.38
2023-01-06T12:30:57.667Z,100520.25
2023-01-06T12:33:35.367Z,100520.22
2023-01-06T12:36:13.582Z,100513.16
2023-01-06T12:38:53.975Z,100511.34
2023-01-06T12:41:30.198Z,100517.50
2023-01-06T12:44:29.886Z,100528.03
2023-01-06T12:47:05.410Z,100528.03
2023-01-06T12:49:39.978Z,100540.38
2023-01-06T12:52:13.117Z,100544.78
2023-01-06T12:54:39.947Z,100541.22
2023-01-06T12:57:23.509Z,100547.38
2023-01-06T13:00:11.299Z,100555.31
2023-01-06T13:03:11.559Z,100553.56
2023-01-06T13:06:02.930Z,100553.56
2023-01-06T13:08:34.289Z,100558.81
2023-01-06T13:11:37.918Z,100558.88
2023-01-06T13:14:29.894Z,100563.28
2023-01-06T13:17:17.393Z,100555.31
2023-01-06T13:19:57.900Z,100553.56
2023-01-06T13:22:56.563Z,100558.06
2023-01-06T13:25:39.989Z,100558.09
2023-01-06T13:28:16.036Z,100556.34
2023-01-06T13:30:53.556Z,100560.75
2023-01-06T13:33:48.441Z,100551.91
2023-01-06T13:36:44.215Z,100551.00
2023-01-06T13:39:16.258Z,100562.56
2023-01-06T13:41:47.975Z,100551.97
2023-01-06T13:44:21.220Z,100551.97
2023-01-06T13:46:50.711Z,100565.22
2023-01-06T13:49:17.637Z,100570.53
2023-01-06T13:51:47.534Z,100579.38
2023-01-06T13:54:39.036Z,100577.63
2023-01-06T13:57:28.205Z,100582.88
2023-01-06T14:00:14.740Z,100581.97
2023-01-06T14:02:43.052Z,100594.31
2023-01-06T14:05:21.748Z,100592.56
2023-01-06T14:08:17.136Z,100590.75
2023-01-06T14:10:46.608Z,100593.34
2023-01-06T14:13:24.357Z,100596.88
2023-01-06T14:15:57.238Z,100596.81
2023-01-06T14:18:34.321Z,100597.72
2023-01-06T14:21:14.985Z,100605.66
2023-01-06T14:23:56.215Z,100605.66
2023-01-06T14:26:45.444Z,100614.53
2023-01-06T14:29:43.281Z,100622.47
2023-01-06T14:32:11.325Z,100626.03
2023-01-06T14:34:44.257Z,100629.66
2023-01-06T14:37:16.475Z,100625.28
2023-01-06T14:39:48.739Z,100626.13
2023-01-06T14:42:20.576Z,100619.84
2023-01-06T14:44:51.887Z,100626.88
2023-01-06T14:47:27.136Z,100629.50
2023-01-06T14:49:59.657Z,100632.97
2023-01-06T14:52:41.102Z,100631.97
2023-01-06T14:55:15.657Z,100623.06
2023-01-06T14:57:44.666Z,100631.81
2023-01-06T15:00:24.452Z,100630.84
2023-01-06T15:02:54.636Z,100629.03
2023-01-06T15:05:24.662Z,100640.44
2023-01-06T15:08:06.977Z,100631.50
2023-01-06T15:10:38.270Z,100636.66
2023-01-06T15:13:21.433Z,100629.50
2023-01-06T15:16:02.894Z,100637.34
2023-01-06T15:18:29.722Z,100633.69
2023-01-06T15:20:58.527Z,100638.94
2023-01-06T15:23:25.739Z,100642.38
2023-01-06T15:25:53.721Z,100645.81
2023-01-06T15:28:38.765Z,100646.63
2023-01-06T15:31:05.425Z,100647.44
2023-01-06T15:33:41.334Z,100651.78
2023-01-06T15:36:08.596Z,100652.59
2023-01-06T15:38:38.209Z,100658.69
2023-01-06T15:41:05.945Z,100653.34
2023-01-06T15:43:42.105Z,100656.78
2023-01-06T15:46:11.721Z,100662.88
2023-01-06T15:48:41.718Z,100669.00
2023-01-06T15:51:14.403Z,100668.06
2023-01-06T15:53:41.512Z,100667.19
2023-01-06T15:56:20.535Z,100668.94
2023-01-06T15:58:50.376Z,100679.44
2023-01-06T16:01:22.279Z,100672.34
2023-01-06T16:04:01.906Z,100679.31
2023-01-06T16:06:31.085Z,100678.44
2023-01-06T16:09:19.380Z,100684.72
2023-01-06T16:12:15.259Z,100676.78
2023-01-06T16:14:49.432Z,100679.38
2023-01-06T16:17:31.698Z,100678.41
2023-01-06T16:20:07.271Z,100688.06
2023-01-06T16:23:03.223Z,100689.81
2023-01-06T16:25:36.208Z,100688.13
2023-01-06T16:28:05.154Z,100691.81
2023-01-06T16:30:38.593Z,100688.34
2023-01-06T16:33:05.365Z,100695.44
2023-01-06T16:35:34.372Z,100689.31
2023-01-06T16:38:01.021Z,100685.72
2023-01-06T16:40:28.726Z,100687.44
2023-01-06T16:43:00.917Z,100688.28
2023-01-06T16:45:48.409Z,100695.34
2023-01-06T16:48:16.447Z,100700.66
2023-01-06T16:50:46.526Z,100702.41
2023-01-06T16:53:15.944Z,100705.06
2023-01-06T16:55:43.400Z,100707.66
2023-01-06T16:58:24.127Z,100705.00
2023-01-06T17:00:53.403Z,100693.50
2023-01-06T17:03:23.771Z,100696.94
2023-01-06T17:05:52.076Z,100696.00
2023-01-06T17:08:28.239Z,100700.34
2023-01-06T17:10:55.129Z,100695.88
2023-01-06T17:13:35.609Z,100687.06
2023-01-06T17:16:06.684Z,100693.19
2023-01-06T17:18:34.445Z,100694.00
2023-01-06T17:21:11.135Z,100701.00
2023-01-06T17:23:51.212Z,100697.44
2023-01-06T17:26:20.496Z,100699.19
2023-01-06T17:28:49.580Z,100689.44
2023-01-06T17:31:32.587Z,100706.09
2023-01-06T17:34:10.555Z,100703.38
2023-01-06T17:36:42.520Z,100712.13
2023-01-06T17:39:32.587Z,100705.91
2023-01-06T17:42:18.458Z,100711.16
2023-01-06T17:44:59.317Z,100717.22
2023-01-06T17:47:37.547Z,100718.03
2023-01-06T17:50:22.936Z,100718.84
2023-01-06T17:53:09.529Z,100731.13
2023-01-06T17:55:45.081Z,100726.66
2023-01-06T17:58:22.283Z,100728.34
2023-01-06T18:00:49.340Z,100725.56
2023-01-06T18:03:20.357Z,100736.88
2023-01-06T18:06:07.924Z,100737.69
2023-01-06T18:08:38.495Z,100739.31
2023-01-06T18:11:11.309Z,100740.97
2023-01-06T18:13:40.223Z,100745.28
2023-01-06T18:16:18.558Z,100744.34
2023-01-06T18:18:45.183Z,100748.69
2023-01-06T18:21:14.721Z,100747.75
2023-01-06T18:23:53.862Z,100744.19
2023-01-06T18:26:27.045Z,100753.81
2023-01-06T18:28:56.549Z,100754.66
2023-01-06T18:31:23.830Z,100744.94
2023-01-06T18:33:54.251Z,100757.22
2023-01-06T18:36:20.983Z,100758.06
2023-01-06T18:38:47.633Z,100761.50
2023-01-06T18:41:15.076Z,100760.56
2023-01-06T18:43:43.024Z,100763.13
2023-01-06T18:46:17.821Z,100758.63
2023-01-06T18:48:45.442Z,100753.31
2023-01-06T18:51:38.420Z,100754.97
2023-01-06T18:54:17.556Z,100762.84
2023-01-06T18:56:44.296Z,100763.69
2023-01-06T18:59:17.244Z,100756.59
2023-01-06T19:01:49.274Z,100760.09
2023-01-06T19:04:29.032Z,100765.34
2023-01-06T19:07:01.750Z,100760.91
2023-01-06T19:09:43.789Z,100761.63
2023-01-06T19:12:32.153Z,100769.38
2023-01-06T19:15:25.012Z,100773.66
2023-01-06T19:17:53.998Z,100773.53
2023-01-06T19:20:28.717Z,100781.31
2023-01-06T19:22:57.321Z,100780.31
2023-01-06T19:25:34.711Z,100768.69
2023-01-06T19:28:15.445Z,100770.28
2023-01-06T19:30:59.539Z,100776.38
2023-01-06T19:33:34.760Z,100789.47
2023-01-06T19:36:26.207Z,100776.22
2023-01-06T19:38:52.898Z,100780.59
2023-01-06T19:41:28.949Z,100772.72
2023-01-06T19:44:27.321Z,100773.63
2023-01-06T19:47:09.071Z,100775.44
2023-01-06T19:49:40.039Z,100764.91
2023-01-06T19:52:28.393Z,100763.97
2023-01-06T19:54:59.467Z,100765.69
2023-01-06T19:57:30.546Z,100771.88
2023-01-06T20:00:01.691Z,100773.56
2023-01-06T20:02:45.297Z,100777.03
2023-01-06T20:05:12.098Z,100775.25
2023-01-06T20:07:38.565Z,100768.16
2023-01-06T20:10:05.550Z,100774.28
2023-01-06T20:12:32.169Z,100782.06
2023-01-06T20:14:58.764Z,100779.41
2023-01-06T20:17:25.777Z,100774.13
2023-01-06T20:19:52.410Z,100782.03
2023-01-06T20:22:21.627Z,100772.44
2023-01-06T20:24:48.500Z,100783.94
2023-01-06T20:27:15.001Z,100786.69
2023-01-06T20:29:44.643Z,100788.50
2023-01-06T20:32:11.259Z,100796.50
2023-01-06T20:34:37.948Z,100798.31
2023-01-06T20:37:04.412Z,100794.81
2023-01-06T20:39:31.123Z,100794.81
2023-01-06T20:41:57.904Z,100793.94
2023-01-06T20:44:24.500Z,100786.94
2023-01-06T20:46:51.399Z,100786.03
2023-01-06T20:49:20.468Z,100781.66
2023-01-06T20:51:47.305Z,100782.50
2023-01-06T20:54:13.750Z,100793.00
2023-01-06T20:56:40.560Z,100794.72
2023-01-06T20:59:07.036Z,100793.75
2023-01-06T21:01:33.756Z,100794.56
2023-01-06T21:04:00.470Z,100798.84
2023-01-06T21:06:27.235Z,100793.47
2023-01-06T21:08:53.764Z,100787.25
2023-01-06T21:11:22.455Z,100782.75
2023-01-06T21:13:49.004Z,100795.91
2023-01-06T21:16:15.797Z,100790.66
2023-01-06T21:18:42.609Z,100794.97
2023-01-06T21:21:09.337Z,100782.63
2023-01-06T21:23:36.063Z,100779.88
2023-01-06T21:26:02.544Z,100779.81
2023-01-06T21:28:29.396Z,100780.56
2023-01-06T21:30:56.258Z,100787.56
2023-01-06T21:33:23.785Z,100785.81
2023-01-06T21:35:50.567Z,100792.03
2023-01-06T21:38:17.201Z,100792.03
2023-01-06T21:40:43.988Z,100791.06
2023-01-06T21:43:13.610Z,100789.19
2023-01-06T21:45:45.199Z,100793.47
2023-01-06T21:48:16.331Z,100797.81
2023-01-06T21:50:44.944Z,100795.97
2023-01-06T21:53:13.301Z,100797.66
2023-01-06T21:55:41.261Z,100794.16
2023-01-06T21:58:07.858Z,100781.88
2023-01-06T22:00:34.330Z,100781.00
2023-01-06T22:03:00.980Z,100787.16
2023-01-06T22:05:29.579Z,100778.31
2023-01-06T22:07:56.671Z,100784.50
2023-01-06T22:10:25.578Z,100777.38
2023-01-06T22:12:54.994Z,100789.56
2023-01-06T22:15:22.554Z,100789.56
2023-01-06T22:17:51.394Z,100801.13
2023-01-06T22:20:22.723Z,100801.38
2023-01-06T22:22:49.717Z,100796.34
2023-01-06T22:25:16.356Z,100790.25
2023-01-06T22:27:46.145Z,100791.97
2023-01-06T22:30:12.843Z,100797.13
2023-01-06T22:32:46.843Z,100796.97
2023-01-06T22:35:15.027Z,100794.19
2023-01-06T22:37:42.414Z,100792.38
2023-01-06T22:40:10.503Z,100793.22
2023-01-06T22:42:37.688Z,100795.84
2023-01-06T22:45:04.861Z,100793.13
2023-01-06T22:47:35.056Z,100796.53
2023-01-06T22:50:02.599Z,100808.66
2023-01-06T22:52:29.442Z,100805.88
2023-01-06T22:54:55.959Z,100807.47
2023-01-06T22:57:22.553Z,100795.06
2023-01-06T22:59:49.075Z,100801.03
2023-01-06T23:02:15.713Z,100800.03
2023-01-06T23:04:42.497Z,100801.66
2023-01-06T23:07:09.152Z,100803.31
2023-01-06T23:09:36.124Z,100803.19
2023-01-06T23:12:03.158Z,100796.91
2023-01-06T23:14:30.180Z,100788.03
2023-01-06T23:16:56.857Z,100779.22
2023-01-06T23:19:23.645Z,100774.72
2023-01-06T23:21:52.352Z,100768.53
2023-01-06T23:24:19.016Z,100767.53
2023-01-06T23:26:46.831Z,100768.31
2023-01-06T23:29:14.675Z,100775.31
2023-01-06T23:31:45.744Z,100782.31
2023-01-06T23:34:19.607Z,100787.53
2023-01-06T23:36:48.064Z,100785.75
2023-01-06T23:39:17.706Z,100780.44
2023-01-06T23:41:45.427Z,100783.94
2023-01-06T23:44:16.766Z,100776.13
2023-01-06T23:46:43.976Z,100777.50
2023-01-06T23:49:18.759Z,100767.50
2023-01-06T23:51:45.590Z,100764.50
2023-01-06T23:54:13.099Z,100762.00
2023-01-06T23:56:40.243Z,100752.28
2023-01-06T23:59:10.705Z,100755.69
